Time;durP1;ratioP1;P1;durP2;ratioP2;P2;SDS_P1;SDS_P2;PMS_P1;PMS_P2;Temp;Humidity;BMP_temperature;BMP_pressure;BME280_temperature;BME280_humidity;BME280_pressure;Samples;Min_cycle;Max_cycle;Signal;HPM_P1;HPM_P2
2023/07/10 00:01:41;;;;;;;10.55;4.38;;;18.90;99.90;;;;;;5094973;28;20046;-66
2023/07/10 00:04:19;;;;;;;6.88;4.70;;;18.80;99.90;;;;;;5095313;28;20043;-66
2023/07/10 00:06:46;;;;;;;9.98;4.22;;;18.90;99.90;;;;;;5095254;28;20035;-66
2023/07/10 00:09:12;;;;;;;8.48;4.88;;;18.90;99.90;;;;;;5112565;28;20043;-66
2023/07/10 00:11:38;;;;;;;8.80;5.13;;;18.90;99.90;;;;;;5095356;28;20094;-66
2023/07/10 00:14:11;;;;;;;7.25;4.63;;;18.90;99.90;;;;;;5094438;28;20047;-67
2023/07/10 00:16:37;;;;;;;10.07;5.18;;;18.80;99.90;;;;;;5092257;28;20051;-66
2023/07/10 00:19:10;;;;;;;7.32;4.57;;;18.80;99.90;;;;;;5074268;28;20032;-66
2023/07/10 00:21:36;;;;;;;10.70;5.05;;;18.80;99.90;;;;;;5074671;28;20043;-66
2023/07/10 00:24:02;;;;;;;9.25;5.00;;;18.70;99.90;;;;;;5074136;28;20040;-66
2023/07/10 00:26:27;;;;;;;9.77;5.38;;;18.70;99.90;;;;;;5074853;28;20036;-66
2023/07/10 00:28:56;;;;;;;8.30;4.43;;;18.70;99.90;;;;;;5074765;28;20476;-66
2023/07/10 00:31:24;;;;;;;8.13;4.47;;;18.70;99.90;;;;;;5074014;28;20044;-66
2023/07/10 00:33:51;;;;;;;6.53;3.73;;;18.70;99.90;;;;;;5092350;28;20051;-66
2023/07/10 00:36:30;;;;;;;8.43;3.97;;;18.60;99.90;;;;;;5074485;28;20667;-66
2023/07/10 00:38:59;;;;;;;6.05;3.65;;;18.60;99.90;;;;;;5057884;28;20040;-66
2023/07/10 00:41:32;;;;;;;7.07;4.00;;;18.60;99.90;;;;;;5057517;28;20036;-66
2023/07/10 00:44:03;;;;;;;10.50;4.22;;;18.50;99.90;;;;;;5091904;28;20206;-66
2023/07/10 00:46:41;;;;;;;7.68;4.25;;;18.50;99.90;;;;;;5092425;28;20484;-66
2023/07/10 00:49:27;;;;;;;5.80;3.35;;;18.40;99.90;;;;;;5092716;28;20040;-66
2023/07/10 00:52:13;;;;;;;6.53;3.42;;;18.40;99.90;;;;;;5073479;28;20121;-66
2023/07/10 00:54:44;;;;;;;5.43;2.80;;;18.30;99.90;;;;;;5092293;28;20048;-66
2023/07/10 00:57:21;;;;;;;6.78;3.13;;;18.30;99.90;;;;;;5092057;28;20492;-66
2023/07/10 00:59:48;;;;;;;7.18;4.25;;;18.30;99.90;;;;;;5056486;28;20569;-66
2023/07/10 01:02:14;;;;;;;5.88;3.13;;;18.20;99.90;;;;;;5074058;28;20051;-66
2023/07/10 01:04:48;;;;;;;18.65;3.53;;;18.20;99.90;;;;;;5073290;28;20479;-66
2023/07/10 01:07:16;;;;;;;6.47;3.25;;;18.20;99.90;;;;;;5092139;28;20417;-66
2023/07/10 01:09:57;;;;;;;9.40;3.72;;;18.10;99.90;;;;;;5073974;28;20392;-66
2023/07/10 01:12:23;;;;;;;5.80;3.53;;;18.20;99.90;;;;;;5055021;28;20045;-66
2023/07/10 01:14:49;;;;;;;6.40;3.65;;;18.10;99.90;;;;;;5058383;28;20104;-66
2023/07/10 01:17:14;;;;;;;6.05;3.47;;;18.10;99.90;;;;;;5073547;28;20044;-66
2023/07/10 01:19:43;;;;;;;6.00;3.78;;;18.00;99.90;;;;;;5090984;28;20046;-66
2023/07/10 01:22:09;;;;;;;6.85;3.95;;;18.00;99.90;;;;;;5091623;28;20085;-66
2023/07/10 01:24:36;;;;;;;6.63;3.80;;;18.00;99.90;;;;;;5057046;28;20502;-66
2023/07/10 01:27:04;;;;;;;5.85;2.97;;;18.10;99.90;;;;;;5073056;28;20154;-66
2023/07/10 01:29:41;;;;;;;6.00;3.25;;;18.00;99.90;;;;;;5091295;28;20049;-66
2023/07/10 01:32:12;;;;;;;7.38;3.58;;;18.00;99.90;;;;;;5073544;28;20044;-66
2023/07/10 01:34:59;;;;;;;6.90;3.75;;;18.00;99.90;;;;;;5072960;28;20039;-66
2023/07/10 01:37:25;;;;;;;7.20;4.20;;;18.00;99.90;;;;;;5073094;28;20047;-67
2023/07/10 01:39:52;;;;;;;5.72;3.53;;;18.00;99.90;;;;;;5090725;28;20377;-66
2023/07/10 01:42:19;;;;;;;6.75;3.80;;;18.10;99.90;;;;;;5073275;28;20404;-66
2023/07/10 01:44:46;;;;;;;12.00;4.35;;;18.10;99.90;;;;;;5091227;28;20028;-66
2023/07/10 01:47:14;;;;;;;6.60;3.17;;;18.00;99.90;;;;;;5072521;28;20043;-66
2023/07/10 01:49:54;;;;;;;9.23;4.18;;;18.10;99.90;;;;;;5072965;28;20051;-66
2023/07/10 01:52:20;;;;;;;;;;;18.10;99.90;;;;;;5073281;28;20058;-66
2023/07/10 01:54:46;;;;;;;10.55;3.83;;;18.00;99.90;;;;;;5072653;28;19992;-66
2023/07/10 01:57:14;;;;;;;7.43;4.30;;;18.00;99.90;;;;;;5072538;28;20488;-66
2023/07/10 01:59:40;;;;;;;6.90;4.03;;;18.10;99.90;;;;;;5072657;28;20101;-66
2023/07/10 02:02:07;;;;;;;8.30;4.30;;;18.00;99.90;;;;;;5072228;28;20048;-66
2023/07/10 02:04:33;;;;;;;8.80;3.58;;;18.10;99.90;;;;;;5072963;28;20140;-66
2023/07/10 02:07:00;;;;;;;8.32;4.03;;;18.10;99.90;;;;;;5072439;28;20042;-66
2023/07/10 02:09:27;;;;;;;8.52;4.55;;;18.10;99.90;;;;;;5072292;28;20043;-66
2023/07/10 02:11:54;;;;;;;8.02;4.25;;;18.10;99.90;;;;;;5090545;28;20036;-66
2023/07/10 02:14:21;;;;;;;8.98;4.63;;;18.10;99.90;;;;;;5072310;28;20119;-66
2023/07/10 02:16:47;;;;;;;7.40;4.15;;;18.10;99.90;;;;;;5090289;28;20036;-66
2023/07/10 02:19:13;;;;;;;6.78;3.75;;;18.10;99.90;;;;;;5072666;28;20044;-66
2023/07/10 02:21:40;;;;;;;6.00;3.60;;;18.00;99.90;;;;;;5072232;28;20538;-66
2023/07/10 02:24:06;;;;;;;8.30;4.00;;;18.00;99.90;;;;;;5055793;28;20040;-66
2023/07/10 02:26:33;;;;;;;5.88;3.53;;;18.00;99.90;;;;;;5072472;28;20048;-66
2023/07/10 02:28:59;;;;;;;5.25;3.47;;;18.10;99.90;;;;;;5055419;28;20048;-67
2023/07/10 02:31:26;;;;;;;5.75;3.50;;;18.00;99.90;;;;;;5072576;28;20468;-66
2023/07/10 02:33:52;;;;;;;5.35;3.85;;;18.00;99.90;;;;;;5055594;28;20044;-66
2023/07/10 02:36:18;;;;;;;5.03;3.05;;;18.00;99.90;;;;;;5089875;28;20040;-66
2023/07/10 02:38:44;;;;;;;7.40;3.95;;;18.00;99.90;;;;;;5072403;28;20048;-66
2023/07/10 02:41:09;;;;;;;5.95;3.03;;;18.00;99.90;;;;;;5072215;28;20032;-66
2023/07/10 02:43:35;;;;;;;4.15;2.42;;;18.00;99.90;;;;;;5089636;28;20547;-66
2023/07/10 02:46:01;;;;;;;4.85;2.28;;;18.00;99.90;;;;;;5090385;28;20040;-66
2023/07/10 02:48:27;;;;;;;4.70;1.92;;;18.00;99.90;;;;;;5090410;28;20086;-67
2023/07/10 02:50:53;;;;;;;3.15;1.85;;;17.90;99.90;;;;;;5071578;28;20522;-67
2023/07/10 02:53:19;;;;;;;2.92;1.70;;;17.80;99.90;;;;;;5055269;28;20154;-66
2023/07/10 02:55:45;;;;;;;1.55;1.00;;;17.80;99.90;;;;;;5072286;28;20067;-67
2023/07/10 02:58:10;;;;;;;2.88;1.15;;;17.80;99.90;;;;;;5089668;28;20043;-67
2023/07/10 03:00:36;;;;;;;2.13;1.05;;;17.70;99.90;;;;;;5071975;28;20471;-66
2023/07/10 03:03:02;;;;;;;4.88;1.00;;;17.70;99.90;;;;;;5086936;28;20035;-67
2023/07/10 03:05:28;;;;;;;2.47;0.95;;;17.60;99.90;;;;;;5069323;28;20048;-66
2023/07/10 03:07:54;;;;;;;1.73;0.88;;;17.60;99.90;;;;;;5079900;28;20048;-66
2023/07/10 03:10:20;;;;;;;1.55;0.90;;;17.50;99.90;;;;;;5072004;28;20101;-67
2023/07/10 03:12:46;;;;;;;2.80;0.90;;;17.50;99.90;;;;;;5089384;28;20561;-67
2023/07/10 03:15:13;;;;;;;2.75;0.70;;;17.50;99.90;;;;;;5071842;28;20044;-66
2023/07/10 03:17:40;;;;;;;2.55;1.17;;;17.40;99.90;;;;;;5071189;28;20522;-66
2023/07/10 03:20:06;;;;;;;5.93;0.80;;;17.40;99.90;;;;;;5090131;28;20472;-66
2023/07/10 03:22:32;;;;;;;0.80;0.57;;;17.40;99.90;;;;;;5071818;28;20051;-67
2023/07/10 03:24:58;;;;;;;3.55;1.10;;;17.30;99.90;;;;;;5071241;28;20040;-66
2023/07/10 03:27:25;;;;;;;1.85;0.82;;;17.30;99.90;;;;;;5071961;28;20051;-66
2023/07/10 03:29:51;;;;;;;0.60;0.38;;;17.30;99.90;;;;;;5055221;28;20044;-66
2023/07/10 03:32:17;;;;;;;2.25;0.60;;;17.30;99.90;;;;;;5054603;28;20044;-66
2023/07/10 03:34:43;;;;;;;1.95;1.17;;;17.30;99.90;;;;;;5089991;28;20098;-66
2023/07/10 03:37:09;;;;;;;1.30;0.70;;;17.30;99.90;;;;;;5071722;28;20508;-66
2023/07/10 03:39:35;;;;;;;3.65;0.65;;;17.20;99.90;;;;;;5089195;28;20097;-66
2023/07/10 03:42:02;;;;;;;2.75;1.35;;;17.20;99.90;;;;;;5090059;28;20040;-66
2023/07/10 03:44:28;;;;;;;1.25;0.60;;;17.20;99.90;;;;;;5071711;28;20074;-66
2023/07/10 03:46:53;;;;;;;1.05;0.82;;;17.20;99.90;;;;;;5071066;28;20040;-66
2023/07/10 03:49:19;;;;;;;1.55;0.80;;;17.20;99.90;;;;;;5089955;28;20099;-66
2023/07/10 03:51:45;;;;;;;1.33;0.70;;;17.20;99.90;;;;;;5071279;28;20113;-66
2023/07/10 03:54:11;;;;;;;0.77;0.52;;;17.20;99.90;;;;;;5072968;28;20051;-66
2023/07/10 03:56:37;;;;;;;3.80;1.13;;;17.20;99.90;;;;;;5074950;28;20048;-66
2023/07/10 03:59:08;;;;;;;1.95;0.82;;;17.20;99.90;;;;;;5074614;28;20517;-65
2023/07/10 04:01:34;;;;;;;1.63;0.55;;;17.20;99.90;;;;;;5074362;28;20123;-65
2023/07/10 04:04:00;;;;;;;1.65;0.82;;;17.20;99.90;;;;;;5074996;28;20115;-65
2023/07/10 04:06:26;;;;;;;2.65;1.00;;;17.20;99.90;;;;;;5075064;28;20051;-66
2023/07/10 04:08:52;;;;;;;1.92;0.70;;;17.30;99.90;;;;;;5074986;28;20085;-65
2023/07/10 04:11:20;;;;;;;1.90;1.02;;;17.30;99.90;;;;;;5092873;28;20392;-66
2023/07/10 04:13:48;;;;;;;2.15;0.93;;;17.30;99.90;;;;;;5074702;28;21165;-65
2023/07/10 04:16:22;;;;;;;1.63;0.82;;;17.30;99.90;;;;;;5092796;28;20047;-66
2023/07/10 04:18:50;;;;;;;1.27;0.65;;;17.40;99.90;;;;;;5057944;28;20097;-65
2023/07/10 04:21:22;;;;;;;2.95;1.20;;;17.40;99.90;;;;;;5074418;28;20131;-65
2023/07/10 04:23:48;;;;;;;1.25;0.73;;;17.40;99.90;;;;;;5058047;28;20093;-65
2023/07/10 04:26:27;;;;;;;2.25;1.27;;;17.40;99.90;;;;;;5074747;28;20518;-66
2023/07/10 04:28:54;;;;;;;1.00;0.55;;;17.40;99.90;;;;;;5092063;28;20048;-65
2023/07/10 04:31:21;;;;;;;1.15;0.60;;;17.50;99.90;;;;;;5092685;28;20044;-65
2023/07/10 04:33:49;;;;;;;2.08;0.85;;;17.40;99.90;;;;;;5074422;28;20042;-65
2023/07/10 04:36:15;;;;;;;1.40;0.90;;;17.50;99.90;;;;;;5057021;28;20048;-65
2023/07/10 04:38:41;;;;;;;3.45;0.77;;;17.50;99.90;;;;;;5074265;28;20043;-66
2023/07/10 04:41:10;;;;;;;1.00;0.52;;;17.50;99.90;;;;;;5074859;28;20790;-65
2023/07/10 04:43:36;;;;;;;0.73;0.43;;;17.60;99.90;;;;;;5073764;28;20042;-65
2023/07/10 04:46:05;;;;;;;3.13;0.55;;;17.60;99.90;;;;;;5074228;28;20126;-65
2023/07/10 04:48:32;;;;;;;1.70;0.88;;;17.60;99.90;;;;;;5073452;28;20083;-65
2023/07/10 04:51:02;;;;;;;1.17;0.73;;;17.60;99.90;;;;;;5092316;28;20040;-65
2023/07/10 04:53:33;;;;;;;0.88;0.40;;;17.60;99.90;;;;;;5074022;28;20067;-64
2023/07/10 04:56:00;;;;;;;2.15;0.45;;;17.70;99.90;;;;;;5066688;28;20519;-64
2023/07/10 04:58:27;;;;;;;0.82;0.45;;;17.70;99.90;;;;;;5070641;28;20082;-65
2023/07/10 05:00:58;;;;;;;1.95;1.00;;;17.70;99.90;;;;;;5077600;28;20068;-65
2023/07/10 05:03:25;;;;;;;2.00;0.70;;;17.70;99.90;;;;;;5053839;28;20097;-65
2023/07/10 05:05:56;;;;;;;2.28;0.80;;;17.90;99.90;;;;;;5069593;28;20052;-64
2023/07/10 05:08:27;;;;;;;3.95;0.70;;;17.90;99.90;;;;;;5071661;28;20128;-65
2023/07/10 05:10:57;;;;;;;1.60;0.68;;;17.90;99.90;;;;;;5069899;28;20055;-65
2023/07/10 05:13:28;;;;;;;3.63;0.50;;;18.00;99.90;;;;;;5070316;28;20040;-65
2023/07/10 05:15:56;;;;;;;1.02;0.40;;;18.00;99.90;;;;;;5072070;28;20040;-65
2023/07/10 05:18:22;;;;;;;1.27;0.70;;;18.10;99.90;;;;;;5069901;28;20048;-65
2023/07/10 05:20:49;;;;;;;1.60;0.88;;;18.10;99.90;;;;;;5070331;28;20386;-65
2023/07/10 05:23:16;;;;;;;2.33;0.63;;;18.10;99.90;;;;;;5053752;28;20181;-65
2023/07/10 05:26:22;;;;;;;1.13;0.63;;;18.10;99.90;;;;;;5069538;28;20036;-65
2023/07/10 05:28:48;;;;;;;2.13;0.90;;;18.20;99.90;;;;;;5040742;28;20052;-65
2023/07/10 05:31:15;;;;;;;1.38;0.63;;;18.20;99.90;;;;;;5070888;28;20362;-65
2023/07/10 05:33:41;;;;;;;1.33;0.93;;;18.20;99.90;;;;;;5070150;28;20032;-65
2023/07/10 05:36:13;;;;;;;2.05;0.70;;;18.20;99.90;;;;;;5071257;28;20154;-65
2023/07/10 05:38:40;;;;;;;4.97;0.98;;;18.30;99.90;;;;;;5069201;28;20481;-65
2023/07/10 05:41:06;;;;;;;2.25;0.90;;;18.40;99.90;;;;;;5071492;28;20028;-66
2023/07/10 05:43:33;;;;;;;1.58;1.13;;;18.50;99.90;;;;;;5056600;28;20047;-66
2023/07/10 05:46:00;;;;;;;2.35;1.05;;;18.50;99.90;;;;;;5064657;28;20045;-66
2023/07/10 05:48:26;;;;;;;1.70;0.80;;;18.50;99.90;;;;;;5053244;28;20037;-66
2023/07/10 05:50:53;;;;;;;5.47;1.00;;;18.50;99.90;;;;;;5053003;28;20129;-66
2023/07/10 05:53:19;;;;;;;1.67;0.93;;;18.50;99.90;;;;;;5084011;28;20067;-66
2023/07/10 05:55:46;;;;;;;2.50;1.00;;;18.60;99.90;;;;;;5070935;28;20032;-66
2023/07/10 05:58:14;;;;;;;2.40;0.70;;;18.70;99.90;;;;;;5073167;28;20113;-66
2023/07/10 06:00:41;;;;;;;1.90;0.98;;;18.80;99.90;;;;;;5072846;28;20058;-65
2023/07/10 06:03:07;;;;;;;2.42;0.95;;;18.90;99.90;;;;;;5090827;28;20039;-65
2023/07/10 06:05:33;;;;;;;1.88;0.82;;;19.00;99.90;;;;;;5072684;28;20040;-65
2023/07/10 06:07:59;;;;;;;2.90;1.33;;;19.10;99.90;;;;;;5073258;28;20047;-65
2023/07/10 06:10:25;;;;;;;4.65;1.33;;;19.20;99.90;;;;;;5085835;28;20075;-65
2023/07/10 06:12:51;;;;;;;2.17;0.77;;;19.30;99.90;;;;;;5072745;28;20046;-66
2023/07/10 06:15:16;;;;;;;2.40;0.95;;;19.40;99.90;;;;;;5066433;28;20484;-65
2023/07/10 06:17:42;;;;;;;2.40;1.13;;;19.50;99.90;;;;;;5068252;28;20044;-66
2023/07/10 06:20:09;;;;;;;2.35;1.17;;;19.60;99.90;;;;;;5090148;28;20046;-66
2023/07/10 06:22:34;;;;;;;2.45;0.73;;;19.70;99.90;;;;;;5085460;28;20043;-66
2023/07/10 06:25:00;;;;;;;2.67;0.47;;;19.80;99.90;;;;;;5072537;28;20040;-66
2023/07/10 06:27:26;;;;;;;1.40;0.70;;;19.80;99.90;;;;;;5090318;28;20069;-66
2023/07/10 06:29:52;;;;;;;1.33;0.63;;;19.80;99.90;;;;;;5072684;28;20039;-66
2023/07/10 06:32:19;;;;;;;3.85;0.75;;;19.80;99.90;;;;;;5072785;28;20086;-66
2023/07/10 06:34:45;;;;;;;1.65;0.52;;;20.00;99.90;;;;;;5072289;28;20040;-66
2023/07/10 06:37:10;;;;;;;3.40;0.65;;;20.20;99.90;;;;;;5084459;28;20059;-66
2023/07/10 06:39:36;;;;;;;3.50;0.90;;;20.30;99.90;;;;;;5072264;28;20484;-66
2023/07/10 06:42:02;;;;;;;2.75;1.05;;;20.50;99.90;;;;;;5090143;28;20089;-66
2023/07/10 06:44:28;;;;;;;1.23;0.50;;;20.80;99.90;;;;;;5067203;28;20045;-66
2023/07/10 06:46:54;;;;;;;1.40;0.77;;;21.00;99.90;;;;;;5072284;28;20046;-66
2023/07/10 06:49:20;;;;;;;3.28;0.40;;;21.20;99.90;;;;;;5071443;28;20131;-66
2023/07/10 06:51:46;;;;;;;1.60;0.43;;;21.30;99.90;;;;;;5071857;28;20155;-66
2023/07/10 06:54:12;;;;;;;2.95;0.70;;;21.50;99.90;;;;;;5090559;28;20048;-66
2023/07/10 06:56:38;;;;;;;0.65;0.35;;;21.60;99.90;;;;;;5071449;28;20036;-66
2023/07/10 06:59:03;;;;;;;2.15;0.50;;;21.70;99.90;;;;;;5085659;28;20120;-66
2023/07/10 07:01:29;;;;;;;1.85;0.57;;;21.70;99.90;;;;;;5051932;28;20098;-67
2023/07/10 07:03:55;;;;;;;1.58;0.43;;;21.90;99.90;;;;;;5052211;28;20453;-66
2023/07/10 07:06:21;;;;;;;1.67;0.75;;;22.10;99.90;;;;;;5070612;28;20040;-66
2023/07/10 07:08:49;;;;;;;1.90;0.70;;;22.20;99.90;;;;;;5070522;28;20047;-66
2023/07/10 07:11:15;;;;;;;2.50;0.65;;;22.40;99.90;;;;;;5072154;28;20523;-66
2023/07/10 07:13:41;;;;;;;2.95;0.45;;;22.40;99.90;;;;;;5072182;28;20119;-67
2023/07/10 07:16:07;;;;;;;1.08;0.43;;;22.50;99.90;;;;;;5071579;28;20123;-66
2023/07/10 07:18:33;;;;;;;6.20;0.90;;;22.70;99.90;;;;;;5068281;28;20664;-67
2023/07/10 07:20:59;;;;;;;1.30;0.75;;;22.90;99.90;;;;;;5070382;28;20036;-66
2023/07/10 07:23:27;;;;;;;3.13;0.80;;;23.00;99.90;;;;;;5071579;28;20119;-67
2023/07/10 07:25:54;;;;;;;0.63;0.32;;;23.10;99.90;;;;;;5053110;28;20109;-66
2023/07/10 07:28:20;;;;;;;3.53;0.47;;;23.10;99.90;;;;;;5056509;28;20032;-67
2023/07/10 07:30:49;;;;;;;2.65;0.90;;;23.30;99.90;;;;;;5089142;28;20040;-67
2023/07/10 07:33:17;;;;;;;3.38;0.93;;;23.30;99.90;;;;;;5086021;28;20442;-67
2023/07/10 07:35:43;;;;;;;1.95;0.55;;;23.40;99.90;;;;;;5059130;28;20041;-67
2023/07/10 07:38:09;;;;;;;4.35;0.70;;;23.40;99.90;;;;;;5106551;28;20047;-66
2023/07/10 07:40:36;;;;;;;4.25;0.80;;;23.30;99.90;;;;;;5095912;28;20584;-66
2023/07/10 07:43:02;;;;;;;6.68;0.80;;;23.50;99.90;;;;;;5095910;28;20519;-67
2023/07/10 07:45:28;;;;;;;3.90;1.02;;;23.60;99.90;;;;;;5082734;28;20044;-68
2023/07/10 07:47:54;;;;;;;2.28;0.88;;;23.70;99.90;;;;;;5075672;28;20128;-67
2023/07/10 07:50:20;;;;;;;1.08;0.50;;;23.80;99.90;;;;;;5093410;28;20043;-69
2023/07/10 07:52:46;;;;;;;1.10;0.57;;;23.90;99.90;;;;;;5074628;28;20105;-68
2023/07/10 07:55:12;;;;;;;0.60;0.30;;;23.90;99.90;;;;;;5075183;28;20515;-68
2023/07/10 07:57:38;;;;;;;1.88;0.70;;;24.00;99.90;;;;;;5074664;28;20067;-68
2023/07/10 08:00:06;;;;;;;6.43;0.80;;;24.40;99.90;;;;;;5093190;28;20054;-67
2023/07/10 08:02:32;;;;;;;2.75;0.70;;;24.70;99.90;;;;;;5075194;28;20469;-67
2023/07/10 08:05:00;;;;;;;1.98;0.90;;;24.80;99.90;;;;;;5074654;28;20055;-67
2023/07/10 08:07:26;;;;;;;5.15;0.55;;;24.70;99.90;;;;;;5075390;28;20438;-67
2023/07/10 08:09:52;;;;;;;4.57;0.70;;;24.70;99.90;;;;;;5075502;28;20491;-67
2023/07/10 08:12:18;;;;;;;2.50;0.73;;;24.50;99.90;;;;;;5092828;28;20127;-68
2023/07/10 08:14:44;;;;;;;2.22;0.65;;;24.50;99.90;;;;;;5093046;28;20447;-68
2023/07/10 08:17:10;;;;;;;2.30;0.82;;;24.50;99.90;;;;;;5074748;28;20044;-68
2023/07/10 08:19:36;;;;;;;2.83;0.98;;;24.40;99.90;;;;;;5057793;28;20047;-68
2023/07/10 08:22:02;;;;;;;1.92;1.13;;;24.50;99.90;;;;;;5058192;28;20032;-69
2023/07/10 08:24:27;;;;;;;2.67;0.85;;;24.60;99.90;;;;;;5074802;28;20059;-68
2023/07/10 08:26:55;;;;;;;1.48;0.57;;;24.70;99.90;;;;;;5057445;28;20089;-68
2023/07/10 08:29:28;;;;;;;2.28;0.55;;;24.90;99.90;;;;;;5074783;28;20494;-67
2023/07/10 08:32:00;;;;;;;6.72;1.13;;;25.00;99.90;;;;;;5075003;28;20047;-67
2023/07/10 08:34:29;;;;;;;4.05;0.57;;;24.90;99.90;;;;;;5062841;28;20047;-67
2023/07/10 08:36:56;;;;;;;3.08;1.17;;;24.90;99.90;;;;;;5089609;28;20041;-68
2023/07/10 08:39:23;;;;;;;2.70;0.70;;;25.00;99.90;;;;;;5092516;28;20492;-67
2023/07/10 08:41:55;;;;;;;3.55;0.77;;;25.30;99.90;;;;;;5091805;28;20047;-68
2023/07/10 08:44:26;;;;;;;1.27;0.50;;;25.30;99.90;;;;;;5091728;28;20169;-67
2023/07/10 08:46:52;;;;;;;1.65;0.52;;;25.50;99.90;;;;;;5054106;28;20445;-67
2023/07/10 08:49:33;;;;;;;1.83;0.55;;;25.50;99.90;;;;;;5083426;28;20032;-67
2023/07/10 08:52:10;;;;;;;1.10;0.50;;;25.70;99.90;;;;;;5074197;28;20167;-68
2023/07/10 08:54:36;;;;;;;3.13;0.80;;;25.70;99.90;;;;;;5073984;28;20048;-68
2023/07/10 08:57:22;;;;;;;1.75;0.90;;;25.70;99.90;;;;;;5074248;28;20515;-68
2023/07/10 09:00:04;;;;;;;1.58;0.90;;;25.70;99.90;;;;;;5071128;28;20048;-68
2023/07/10 09:02:48;;;;;;;2.80;0.80;;;25.60;99.90;;;;;;5073028;28;20111;-68
2023/07/10 09:05:29;;;;;;;3.17;0.80;;;25.40;99.90;;;;;;5092297;28;20047;-67
2023/07/10 09:07:59;;;;;;;3.35;0.75;;;25.50;99.90;;;;;;5073561;28;20350;-68
2023/07/10 09:10:37;;;;;;;3.47;0.80;;;25.60;99.90;;;;;;5073972;28;20036;-69
2023/07/10 09:13:04;;;;;;;1.77;0.80;;;25.90;99.90;;;;;;5073884;28;20047;-71
2023/07/10 09:15:36;;;;;;;1.75;0.85;;;26.20;99.90;;;;;;5073010;28;20048;-69
2023/07/10 09:18:16;;;;;;;4.03;0.68;;;26.10;99.90;;;;;;5073732;28;20040;-68
2023/07/10 09:20:42;;;;;;;3.95;0.88;;;26.00;99.90;;;;;;5092044;28;20085;-69
2023/07/10 09:23:30;;;;;;;2.92;0.70;;;25.90;99.90;;;;;;5072949;28;20582;-69
2023/07/10 09:26:05;;;;;;;;;;;26.10;99.90;;;;;;5092542;28;20036;-69
2023/07/10 09:28:32;;;;;;;2.53;1.05;;;26.10;99.90;;;;;;5056257;28;19915;-69
2023/07/10 09:31:24;;;;;;;1.95;1.15;;;25.90;99.90;;;;;;5091606;28;20066;-71
2023/07/10 09:33:52;;;;;;;4.13;0.80;;;26.00;99.90;;;;;;5073454;28;20124;-70
2023/07/10 09:36:21;;;;;;;1.60;0.65;;;26.20;99.90;;;;;;5072861;28;20051;-69
2023/07/10 09:38:50;;;;;;;2.83;0.68;;;26.30;99.90;;;;;;5073400;28;20040;-69
2023/07/10 09:41:23;;;;;;;;;;;26.20;99.90;;;;;;5092276;28;20083;-72
2023/07/10 09:43:56;;;;;;;3.83;0.63;;;26.30;99.90;;;;;;5072675;28;19927;-69
2023/07/10 09:46:26;;;;;;;3.22;0.90;;;26.30;99.90;;;;;;5073159;28;20557;-69
2023/07/10 09:48:53;;;;;;;2.08;0.40;;;26.30;99.90;;;;;;5056370;28;20050;-69
2023/07/10 09:51:19;;;;;;;2.00;0.55;;;26.50;99.90;;;;;;5072174;28;20134;-69
2023/07/10 09:53:53;;;;;;;1.65;0.60;;;26.40;99.90;;;;;;5072687;28;20531;-69
2023/07/10 09:56:35;;;;;;;5.63;1.17;;;26.40;99.90;;;;;;5072804;28;20047;-69
2023/07/10 09:59:17;;;;;;;3.03;0.85;;;26.50;99.90;;;;;;5070202;28;20040;-69
2023/07/10 10:01:47;;;;;;;3.28;0.88;;;26.70;99.90;;;;;;5055327;28;20059;-70
2023/07/10 10:04:29;;;;;;;4.10;0.55;;;26.80;99.90;;;;;;5090453;28;20036;-69
2023/07/10 10:07:14;;;;;;;;;;;26.80;99.90;;;;;;5073429;28;20097;-69
2023/07/10 10:09:41;;;;;;;3.85;0.70;;;26.80;99.90;;;;;;5087757;28;20587;-70
2023/07/10 10:12:33;;;;;;;9.23;1.25;;;26.80;99.90;;;;;;5090342;28;20063;-69
2023/07/10 10:15:16;;;;;;;3.05;0.95;;;26.60;99.60;;;;;;5072798;28;20051;-69
2023/07/10 10:17:47;;;;;;;1.88;0.57;;;26.60;99.90;;;;;;5053052;28;20495;-70
2023/07/10 10:20:27;;;;;;;3.22;0.90;;;26.80;99.90;;;;;;5056474;28;20044;-70
2023/07/10 10:22:54;;;;;;;1.75;1.02;;;27.00;99.90;;;;;;5056605;28;20488;-70
2023/07/10 10:25:26;;;;;;;2.75;0.88;;;27.20;99.90;;;;;;5090055;28;20047;-69
2023/07/10 10:28:11;;;;;;;1.60;0.52;;;27.30;99.70;;;;;;5072246;28;20035;-69
2023/07/10 10:30:45;;;;;;;3.80;0.70;;;27.40;98.90;;;;;;5090158;28;20389;-68
2023/07/10 10:33:36;;;;;;;3.17;0.88;;;27.20;97.90;;;;;;5055016;28;20123;-68
2023/07/10 10:36:34;;;;;;;2.08;1.15;;;27.00;96.40;;;;;;5055932;28;20413;-69
2023/07/10 10:39:46;;;;;;;1.73;0.97;;;26.60;97.10;;;;;;5089858;28;20044;-68
2023/07/10 10:42:36;;;;;;;1.75;0.57;;;26.40;96.90;;;;;;4972336;28;20339;-68
2023/07/10 10:45:13;;;;;;;2.70;0.90;;;26.50;98.10;;;;;;4969325;28;20051;-68
2023/07/10 10:48:17;;;;;;;6.72;0.98;;;26.60;97.40;;;;;;4968742;28;20046;-68
2023/07/10 10:51:22;;;;;;;0.80;0.47;;;26.70;96.20;;;;;;4949199;28;20091;-68
2023/07/10 10:54:05;;;;;;;4.03;0.85;;;26.60;96.60;;;;;;4968427;28;20086;-69
2023/07/10 10:56:40;;;;;;;5.03;1.20;;;26.60;97.50;;;;;;4952661;28;20051;-68
2023/07/10 10:59:21;;;;;;;1.67;0.35;;;26.80;96.70;;;;;;4956740;28;20047;-70
2023/07/10 11:02:14;;;;;;;2.47;0.45;;;27.00;96.70;;;;;;4987780;28;20034;-69
2023/07/10 11:04:45;;;;;;;2.78;0.80;;;27.10;96.60;;;;;;4991298;28;20069;-69
2023/07/10 11:07:14;;;;;;;1.40;0.65;;;26.90;95.70;;;;;;4975631;28;20133;-69
2023/07/10 11:09:50;;;;;;;3.53;1.17;;;26.60;95.90;;;;;;4960157;28;20396;-69
2023/07/10 11:12:22;;;;;;;1.58;0.32;;;26.50;95.50;;;;;;4991778;28;20410;-69
2023/07/10 11:14:51;;;;;;;0.60;0.30;;;26.40;95.80;;;;;;4974731;28;20042;-68
2023/07/10 11:17:16;;;;;;;;;;;26.50;95.90;;;;;;5081602;28;20044;-69
2023/07/10 11:19:43;;;;;;;3.15;0.57;;;26.60;95.40;;;;;;5093007;28;19922;-69
2023/07/10 11:22:35;;;;;;;3.78;0.88;;;26.70;95.50;;;;;;5070504;28;20531;-68
2023/07/10 11:25:02;;;;;;;3.35;0.50;;;26.40;94.80;;;;;;5093124;28;20032;-69
2023/07/10 11:27:33;;;;;;;1.55;0.38;;;26.40;95.60;;;;;;5092378;28;20044;-69
2023/07/10 11:30:13;;;;;;;2.30;0.40;;;26.60;94.70;;;;;;5074676;28;20037;-71
2023/07/10 11:33:14;;;;;;;0.63;0.35;;;26.70;94.10;;;;;;5075968;28;20127;-68
2023/07/10 11:36:29;;;;;;;1.75;0.43;;;26.70;94.30;;;;;;5055290;28;20105;-68
2023/07/10 11:39:05;;;;;;;0.35;0.30;;;26.60;94.30;;;;;;5044637;28;20052;-69
2023/07/10 11:41:51;;;;;;;1.67;0.50;;;26.60;94.00;;;;;;5054814;28;20469;-70
2023/07/10 11:44:21;;;;;;;1.77;0.38;;;26.80;94.20;;;;;;5041456;28;20049;-68
2023/07/10 11:47:05;;;;;;;6.80;0.85;;;27.10;94.30;;;;;;5055217;28;20044;-69
2023/07/10 11:49:44;;;;;;;1.50;0.35;;;27.20;92.20;;;;;;5054621;28;20131;-69
2023/07/10 11:52:16;;;;;;;2.45;0.28;;;27.30;93.10;;;;;;5058287;28;20067;-69
2023/07/10 11:54:50;;;;;;;1.35;0.30;;;27.30;91.70;;;;;;5093238;28;20067;-69
2023/07/10 11:57:20;;;;;;;1.35;0.45;;;27.40;92.60;;;;;;5074302;28;20076;-68
2023/07/10 12:00:25;;;;;;;2.22;0.40;;;27.30;90.60;;;;;;5071664;28;20037;-70
2023/07/10 12:03:01;;;;;;;0.50;0.20;;;26.90;89.90;;;;;;5022408;28;20128;-68
2023/07/10 12:05:40;;;;;;;0.80;0.30;;;26.60;90.30;;;;;;5075221;28;20531;-69
2023/07/10 12:08:07;;;;;;;1.65;0.30;;;26.60;90.70;;;;;;5092818;28;20488;-69
2023/07/10 12:10:45;;;;;;;0.65;0.15;;;26.60;90.60;;;;;;5057867;28;20051;-70
2023/07/10 12:13:23;;;;;;;1.40;0.30;;;26.70;90.40;;;;;;5075264;28;20040;-68
2023/07/10 12:15:53;;;;;;;0.70;0.30;;;26.70;88.30;;;;;;5074579;28;20039;-69
2023/07/10 12:18:25;;;;;;;0.60;0.20;;;26.50;88.70;;;;;;5092259;28;20075;-70
2023/07/10 12:20:52;;;;;;;0.73;0.28;;;26.40;87.90;;;;;;5074910;28;20089;-69
2023/07/10 12:23:19;;;;;;;0.70;0.20;;;26.30;87.80;;;;;;5074634;28;20044;-69
2023/07/10 12:25:53;;;;;;;1.33;0.40;;;26.30;87.60;;;;;;5069006;28;20047;-68
2023/07/10 12:28:21;;;;;;;4.55;0.82;;;26.40;87.10;;;;;;5058285;28;20043;-69
2023/07/10 12:30:51;;;;;;;2.40;0.50;;;26.40;87.10;;;;;;5085603;28;20059;-69
2023/07/10 12:33:50;;;;;;;0.80;0.52;;;26.40;88.30;;;;;;5090264;28;20043;-68
2023/07/10 12:36:32;;;;;;;5.28;0.43;;;26.40;86.00;;;;;;5074221;28;20511;-68
2023/07/10 12:39:09;;;;;;;1.02;0.63;;;26.40;87.60;;;;;;5073968;28;20036;-68
2023/07/10 12:41:41;;;;;;;0.65;0.20;;;26.40;86.70;;;;;;5074728;28;20354;-70
2023/07/10 12:44:13;;;;;;;1.45;0.45;;;26.30;87.40;;;;;;5092599;28;20047;-67
2023/07/10 12:46:41;;;;;;;2.05;0.40;;;26.40;86.80;;;;;;5057199;28;20036;-68
2023/07/10 12:49:15;;;;;;;0.55;0.32;;;26.30;86.90;;;;;;5068775;28;20149;-68
2023/07/10 12:51:45;;;;;;;1.35;0.30;;;26.30;86.00;;;;;;5056945;28;20047;-68
2023/07/10 12:54:28;;;;;;;0.93;0.68;;;26.20;85.70;;;;;;5085556;28;20447;-67
2023/07/10 12:56:55;;;;;;;0.82;0.25;;;26.10;85.70;;;;;;5068018;28;20525;-69
2023/07/10 12:59:30;;;;;;;1.13;0.40;;;26.00;84.80;;;;;;5090483;28;20062;-68
2023/07/10 13:02:14;;;;;;;0.82;0.40;;;25.90;84.50;;;;;;5069942;28;20044;-67
2023/07/10 13:04:45;;;;;;;0.85;0.55;;;25.90;84.80;;;;;;5073374;28;20040;-68
2023/07/10 13:07:13;;;;;;;0.85;0.17;;;25.90;85.60;;;;;;5072616;28;20044;-68